Time;durP1;ratioP1;P1;durP2;ratioP2;P2;SDS_P1;SDS_P2;PMS_P1;PMS_P2;Temp;Humidity;BMP_temperature;BMP_pressure;BME280_temperature;BME280_humidity;BME280_pressure;Samples;Min_cycle;Max_cycle;Signal;HPM_P1;HPM_P2
2023/01/21 00:02:08;;;;;;;5.50;5.00;;;1.10;99.90;;;;;;5066800;28;20224;-79
2023/01/21 00:04:37;;;;;;;8.82;5.07;;;1.00;99.90;;;;;;5071947;28;20222;-79
2023/01/21 00:07:06;;;;;;;9.75;5.35;;;1.10;99.90;;;;;;5077263;28;20202;-78
2023/01/21 00:09:34;;;;;;;6.32;4.80;;;1.00;99.90;;;;;;5071952;28;20192;-79
2023/01/21 00:12:03;;;;;;;5.80;5.30;;;1.10;99.90;;;;;;5072217;28;20248;-78
2023/01/21 00:14:31;;;;;;;6.53;4.97;;;1.10;99.90;;;;;;5077871;28;20190;-78
2023/01/21 00:16:59;;;;;;;7.63;5.45;;;1.20;99.90;;;;;;5067407;28;20211;-79
2023/01/21 00:19:29;;;;;;;6.40;5.47;;;1.20;99.90;;;;;;5070547;28;20224;-80
2023/01/21 00:21:59;;;;;;;7.60;4.90;;;1.10;99.90;;;;;;5068622;28;20216;-77
2023/01/21 00:24:28;;;;;;;6.93;4.97;;;0.90;99.90;;;;;;5069514;28;20210;-78
2023/01/21 00:26:56;;;;;;;7.95;5.70;;;0.90;99.90;;;;;;5070268;28;20209;-79
2023/01/21 00:29:25;;;;;;;7.80;5.53;;;0.80;99.90;;;;;;5070418;28;20246;-80
2023/01/21 00:31:53;;;;;;;6.22;5.55;;;0.80;99.90;;;;;;5072466;28;20224;-78
2023/01/21 00:34:21;;;;;;;7.40;6.28;;;0.80;99.90;;;;;;5069876;28;20653;-79
2023/01/21 00:36:49;;;;;;;6.80;5.78;;;0.80;99.90;;;;;;5077552;28;20193;-79
2023/01/21 00:39:19;;;;;;;7.60;5.40;;;0.80;99.90;;;;;;5076955;28;20196;-80
2023/01/21 00:41:47;;;;;;;6.20;5.47;;;0.90;99.90;;;;;;5073602;28;20226;-79
2023/01/21 00:44:16;;;;;;;5.40;4.85;;;0.80;99.90;;;;;;5074227;28;20198;-78
2023/01/21 00:46:44;;;;;;;7.50;6.03;;;0.90;99.90;;;;;;5074342;28;20209;-79
2023/01/21 00:49:12;;;;;;;6.75;5.22;;;0.80;99.90;;;;;;5075478;28;20215;-79
2023/01/21 00:51:41;;;;;;;7.50;5.10;;;0.90;99.90;;;;;;5076475;28;20225;-79
2023/01/21 00:54:09;;;;;;;6.32;5.30;;;0.80;99.90;;;;;;5074715;28;20203;-77
2023/01/21 00:56:39;;;;;;;6.35;5.15;;;0.80;99.90;;;;;;5076070;28;20240;-79
2023/01/21 00:59:07;;;;;;;6.03;4.93;;;0.90;99.90;;;;;;5072548;28;20880;-79
2023/01/21 01:01:37;;;;;;;7.55;5.20;;;0.80;99.90;;;;;;5076227;28;21769;-79
2023/01/21 01:04:05;;;;;;;6.78;5.30;;;0.80;99.90;;;;;;5074103;28;20237;-78
2023/01/21 01:06:34;;;;;;;8.40;5.53;;;0.70;99.90;;;;;;5075237;28;20227;-80
2023/01/21 01:09:02;;;;;;;7.22;6.45;;;0.80;99.90;;;;;;5075898;28;20198;-79
2023/01/21 01:11:30;;;;;;;8.25;6.57;;;0.80;99.90;;;;;;5079196;28;20229;-78
2023/01/21 01:14:00;;;;;;;5.18;4.68;;;0.80;99.90;;;;;;5076167;28;20194;-79
2023/01/21 01:16:28;;;;;;;5.90;5.40;;;0.90;99.90;;;;;;5064910;28;20198;-80
2023/01/21 01:18:56;;;;;;;8.70;6.43;;;0.90;99.90;;;;;;5077749;28;20205;-80
2023/01/21 01:21:24;;;;;;;6.57;5.97;;;0.90;99.90;;;;;;5077183;28;20749;-80
2023/01/21 01:23:53;;;;;;;6.18;5.57;;;1.00;99.90;;;;;;5077609;28;20197;-79
2023/01/21 01:26:22;;;;;;;6.30;5.47;;;1.00;99.90;;;;;;5074512;28;20203;-78
2023/01/21 01:28:50;;;;;;;4.95;4.55;;;0.90;99.90;;;;;;5072541;28;20205;-78
2023/01/21 01:31:20;;;;;;;5.55;5.03;;;1.00;99.90;;;;;;5057847;28;20991;-80
2023/01/21 01:33:49;;;;;;;6.07;5.15;;;0.90;99.90;;;;;;5080832;28;20279;-81
2023/01/21 01:36:19;;;;;;;8.18;5.40;;;0.90;99.90;;;;;;5081562;28;20224;-80
2023/01/21 01:38:47;;;;;;;7.22;5.57;;;1.00;99.90;;;;;;5076150;28;20203;-80
2023/01/21 01:41:17;;;;;;;9.23;5.50;;;1.00;99.90;;;;;;5072111;28;20214;-80
2023/01/21 01:43:54;;;;;;;5.60;4.28;;;0.90;99.90;;;;;;5081143;28;20199;-80
2023/01/21 01:46:25;;;;;;;5.60;4.95;;;0.80;99.90;;;;;;5079440;28;20209;-79
2023/01/21 01:48:59;;;;;;;5.90;4.38;;;0.80;99.90;;;;;;5078361;28;20202;-80
2023/01/21 01:51:35;;;;;;;5.82;4.43;;;0.80;99.90;;;;;;5083381;28;20220;-79
2023/01/21 01:54:04;;;;;;;5.72;4.78;;;0.70;99.90;;;;;;5073496;28;20200;-78
2023/01/21 01:56:33;;;;;;;7.30;5.45;;;0.70;99.90;;;;;;5074652;28;20410;-78
2023/01/21 01:59:01;;;;;;;8.30;3.95;;;0.70;99.90;;;;;;5080052;28;20206;-80
2023/01/21 02:01:31;;;;;;;4.90;4.50;;;0.80;99.90;;;;;;5075524;28;20750;-80
2023/01/21 02:04:01;;;;;;;6.78;5.53;;;0.80;99.90;;;;;;5072575;28;20778;-80
2023/01/21 02:06:29;;;;;;;5.47;4.35;;;0.70;99.90;;;;;;5086814;28;20195;-79
2023/01/21 02:08:58;;;;;;;5.10;4.57;;;0.60;99.90;;;;;;5086932;28;20215;-82
2023/01/21 02:11:26;;;;;;;5.10;4.60;;;0.60;99.90;;;;;;5082701;28;20222;-79
2023/01/21 02:13:57;;;;;;;7.35;5.70;;;0.50;99.90;;;;;;5076332;28;20376;-80
2023/01/21 02:16:45;;;;;;;5.50;4.68;;;0.60;99.90;;;;;;5072180;28;20190;-79
2023/01/21 02:19:40;;;;;;;5.57;5.07;;;0.60;99.90;;;;;;5073841;28;20215;-80
2023/01/21 02:22:16;;;;;;;4.47;4.07;;;0.60;99.90;;;;;;5076341;28;20251;-82
2023/01/21 02:25:25;;;;;;;6.75;4.35;;;0.50;99.90;;;;;;5076979;28;20206;-78
2023/01/21 02:28:21;;;;;;;6.47;5.40;;;0.40;99.90;;;;;;5077378;28;20206;-78
2023/01/21 02:31:16;;;;;;;6.10;4.35;;;0.30;99.90;;;;;;5075974;28;20256;-80
2023/01/21 02:33:58;;;;;;;6.38;4.85;;;0.40;99.90;;;;;;5073024;28;20263;-79
2023/01/21 02:36:45;;;;;;;5.22;4.78;;;0.20;99.90;;;;;;5067107;28;20198;-80
2023/01/21 02:39:21;;;;;;;6.60;5.28;;;0.20;99.90;;;;;;5075216;28;20680;-81
2023/01/21 02:42:04;;;;;;;5.28;4.78;;;0.20;99.90;;;;;;5065382;28;20232;-81
2023/01/21 02:44:38;;;;;;;4.75;4.35;;;0.10;99.90;;;;;;5072691;28;20522;-78
2023/01/21 02:47:15;;;;;;;4.68;4.20;;;0.10;99.90;;;;;;5057410;28;20826;-79
2023/01/21 02:49:49;;;;;;;7.40;4.82;;;0.10;99.90;;;;;;5075012;28;20677;-78
2023/01/21 02:52:19;;;;;;;6.82;4.47;;;0.00;99.90;;;;;;5077813;28;20692;-78
2023/01/21 02:54:53;;;;;;;5.90;4.43;;;0.10;99.90;;;;;;5059014;28;20199;-79
2023/01/21 02:57:39;;;;;;;6.20;4.70;;;0.10;99.90;;;;;;5075069;28;20259;-78
2023/01/21 03:00:11;;;;;;;4.82;4.35;;;-0.10;99.90;;;;;;5077560;28;20288;-81
2023/01/21 03:03:28;;;;;;;4.50;3.80;;;-0.10;99.90;;;;;;5078171;28;20223;-79
2023/01/21 03:06:35;;;;;;;5.05;4.65;;;-0.10;99.90;;;;;;5073197;28;20264;-79
2023/01/21 03:09:17;;;;;;;4.80;3.90;;;-0.20;99.90;;;;;;5077126;28;20227;-80
2023/01/21 03:11:56;;;;;;;4.70;4.30;;;-0.20;99.90;;;;;;5079254;28;20219;-79
2023/01/21 03:17:27;;;;;;;4.68;4.28;;;-0.30;99.90;;;;;;5074902;28;20258;-80
2023/01/21 03:20:03;;;;;;;4.50;4.10;;;-0.40;99.90;;;;;;5078113;28;20207;-78
2023/01/21 03:22:35;;;;;;;5.22;4.53;;;-0.30;99.90;;;;;;5079259;28;20587;-78
2023/01/21 03:25:07;;;;;;;8.50;4.40;;;-0.40;99.90;;;;;;5074972;28;20217;-77
2023/01/21 03:27:41;;;;;;;5.00;4.57;;;-0.40;99.90;;;;;;5070688;28;20202;-78
2023/01/21 03:30:13;;;;;;;4.75;4.10;;;-0.50;99.90;;;;;;5075102;28;20282;-77
2023/01/21 03:32:46;;;;;;;5.30;4.00;;;-0.50;99.90;;;;;;5076040;28;20204;-77
2023/01/21 03:35:21;;;;;;;3.83;3.25;;;-0.50;99.90;;;;;;5072004;28;20195;-78
2023/01/21 03:37:53;;;;;;;3.97;3.67;;;-0.50;99.90;;;;;;5073375;28;20711;-79
2023/01/21 03:40:25;;;;;;;5.80;4.35;;;-0.50;99.90;;;;;;5075290;28;20234;-79
2023/01/21 03:42:55;;;;;;;5.05;4.35;;;-0.60;99.90;;;;;;5068995;28;20208;-77
2023/01/21 03:45:36;;;;;;;4.32;3.95;;;-0.60;99.90;;;;;;5052799;28;20203;-77
2023/01/21 03:48:13;;;;;;;3.95;3.65;;;-0.50;99.90;;;;;;5071246;28;20213;-79
2023/01/21 03:50:45;;;;;;;4.28;3.72;;;-0.60;99.90;;;;;;5052818;28;20200;-80
2023/01/21 03:53:15;;;;;;;3.85;3.55;;;-0.60;99.90;;;;;;5071940;28;20219;-80
2023/01/21 03:55:43;;;;;;;5.25;4.38;;;-0.60;99.90;;;;;;5072126;28;20201;-78
2023/01/21 03:58:11;;;;;;;7.40;4.35;;;-0.70;99.90;;;;;;5075816;28;20207;-78
2023/01/21 04:00:39;;;;;;;4.28;3.95;;;-0.70;99.90;;;;;;5070804;28;20203;-78
2023/01/21 04:03:07;;;;;;;4.63;3.60;;;-0.70;99.90;;;;;;5069924;28;20217;-79
2023/01/21 04:05:35;;;;;;;3.90;3.60;;;-0.80;99.90;;;;;;5076036;28;20894;-78
2023/01/21 04:08:04;;;;;;;4.60;4.15;;;-0.70;99.90;;;;;;5077360;28;20590;-80
2023/01/21 04:10:34;;;;;;;4.53;4.13;;;-0.70;99.90;;;;;;5065696;28;20246;-78
2023/01/21 04:13:02;;;;;;;4.35;3.95;;;-0.70;99.90;;;;;;5058700;28;20213;-80
2023/01/21 04:15:30;;;;;;;6.13;4.35;;;-0.60;99.90;;;;;;5072245;28;20794;-79
2023/01/21 04:17:58;;;;;;;5.95;4.20;;;-0.60;99.90;;;;;;5068056;28;20199;-79
2023/01/21 04:20:26;;;;;;;6.78;4.07;;;-0.60;99.90;;;;;;5071805;28;20200;-79
2023/01/21 04:22:54;;;;;;;5.88;4.25;;;-0.70;99.90;;;;;;5070913;28;20219;-80
2023/01/21 04:25:23;;;;;;;6.82;4.93;;;-0.90;99.90;;;;;;5068462;28;20196;-81
2023/01/21 04:27:52;;;;;;;6.22;5.63;;;-0.90;99.90;;;;;;5069156;28;20262;-78
2023/01/21 04:30:20;;;;;;;5.13;4.57;;;-1.00;99.90;;;;;;5067676;28;20188;-78
2023/01/21 04:32:48;;;;;;;4.95;4.40;;;-1.00;99.90;;;;;;5073590;28;20253;-79
2023/01/21 04:35:16;;;;;;;5.85;3.95;;;-1.00;99.90;;;;;;5065881;28;20200;-79
2023/01/21 04:37:45;;;;;;;5.97;5.38;;;-0.90;99.90;;;;;;5063195;28;20203;-79
2023/01/21 04:40:13;;;;;;;5.60;4.95;;;-0.90;99.90;;;;;;5069839;28;20204;-78
2023/01/21 04:42:42;;;;;;;5.18;4.68;;;-0.90;99.90;;;;;;5075427;28;20300;-81
2023/01/21 04:45:12;;;;;;;5.35;4.85;;;-1.00;99.90;;;;;;5074318;28;20287;-79
2023/01/21 04:47:42;;;;;;;5.57;4.97;;;-1.00;99.90;;;;;;5075830;28;20298;-80
2023/01/21 04:50:11;;;;;;;5.43;4.93;;;-1.00;99.90;;;;;;5072439;28;20719;-79
2023/01/21 04:52:40;;;;;;;5.88;4.82;;;-1.10;99.90;;;;;;5074990;28;20211;-78
2023/01/21 04:55:09;;;;;;;5.47;4.60;;;-1.10;99.90;;;;;;5072344;28;20227;-78
2023/01/21 04:57:37;;;;;;;4.95;4.55;;;-1.00;99.90;;;;;;5072992;28;20203;-78
2023/01/21 05:00:07;;;;;;;6.22;5.20;;;-1.00;99.90;;;;;;5076693;28;20270;-79
2023/01/21 05:02:36;;;;;;;4.50;4.10;;;-1.00;99.90;;;;;;5074737;28;20307;-78
2023/01/21 05:05:06;;;;;;;5.05;4.55;;;-1.00;99.90;;;;;;5078969;28;20207;-83
2023/01/21 05:07:34;;;;;;;7.20;4.68;;;-1.00;99.90;;;;;;5082318;28;20204;-79
2023/01/21 05:10:02;;;;;;;5.75;4.55;;;-1.00;99.90;;;;;;5081766;28;20561;-79
2023/01/21 05:12:30;;;;;;;6.60;5.45;;;-1.00;99.90;;;;;;5085860;28;20223;-80
2023/01/21 05:14:59;;;;;;;7.03;4.03;;;-1.10;99.90;;;;;;5084591;28;20211;-80
2023/01/21 05:17:27;;;;;;;6.93;5.55;;;-1.10;99.90;;;;;;5067451;28;20211;-79
2023/01/21 05:19:56;;;;;;;4.40;4.00;;;-1.10;99.90;;;;;;5079653;28;20207;-79
2023/01/21 05:22:24;;;;;;;5.03;4.43;;;-1.10;99.90;;;;;;5079628;28;20249;-79
2023/01/21 05:24:52;;;;;;;11.13;4.70;;;-1.10;99.90;;;;;;5082902;28;20196;-79
2023/01/21 05:27:21;;;;;;;5.60;5.07;;;-1.10;99.90;;;;;;5064331;28;20742;-81
2023/01/21 05:29:49;;;;;;;5.75;5.05;;;-1.10;99.90;;;;;;5078836;28;20196;-79
2023/01/21 05:32:17;;;;;;;6.03;5.18;;;-1.20;99.90;;;;;;5077712;28;20612;-79
2023/01/21 05:34:45;;;;;;;5.35;4.10;;;-1.30;99.90;;;;;;5075476;28;20238;-79
2023/01/21 05:37:15;;;;;;;5.68;5.03;;;-1.30;99.90;;;;;;5077608;28;20204;-79
2023/01/21 05:39:43;;;;;;;4.50;4.07;;;-1.30;99.90;;;;;;5071266;28;20192;-79
2023/01/21 05:42:11;;;;;;;6.75;4.90;;;-1.20;99.90;;;;;;5069000;28;20235;-78
2023/01/21 05:44:39;;;;;;;5.75;3.85;;;-1.30;99.90;;;;;;5073135;28;20269;-78
2023/01/21 05:47:07;;;;;;;5.28;4.75;;;-1.40;99.90;;;;;;5078474;28;20212;-78
2023/01/21 05:49:36;;;;;;;7.13;4.25;;;-1.30;99.90;;;;;;5078689;28;20218;-79
2023/01/21 05:52:05;;;;;;;6.30;5.28;;;-1.20;99.90;;;;;;5065204;28;20216;-78
2023/01/21 05:54:34;;;;;;;5.47;4.00;;;-1.20;99.90;;;;;;5077774;28;20297;-78
2023/01/21 05:57:02;;;;;;;4.82;4.43;;;-1.20;99.90;;;;;;5078466;28;20235;-80
2023/01/21 05:59:30;;;;;;;6.55;4.15;;;-1.20;99.90;;;;;;5078004;28;20204;-78
2023/01/21 06:01:59;;;;;;;6.03;4.88;;;-1.40;99.90;;;;;;5068976;28;20739;-79
2023/01/21 06:04:29;;;;;;;6.28;4.20;;;-1.40;99.90;;;;;;5073945;28;20218;-78
2023/01/21 06:06:57;;;;;;;5.72;3.80;;;-1.50;99.90;;;;;;5058833;28;20228;-79
2023/01/21 06:09:26;;;;;;;4.75;4.38;;;-1.60;99.90;;;;;;5078651;28;20227;-79
2023/01/21 06:11:55;;;;;;;4.65;4.25;;;-1.60;99.90;;;;;;5073379;28;20223;-80
2023/01/21 06:14:23;;;;;;;5.60;5.20;;;-1.50;99.90;;;;;;5072071;28;20215;-78
2023/01/21 06:16:52;;;;;;;4.80;4.40;;;-1.50;99.90;;;;;;5071775;28;20196;-79
2023/01/21 06:19:20;;;;;;;5.90;5.40;;;-1.50;99.90;;;;;;5072293;28;20204;-78
2023/01/21 06:21:48;;;;;;;5.80;5.20;;;-1.50;99.90;;;;;;5076130;28;21351;-78
2023/01/21 06:24:16;;;;;;;5.45;4.18;;;-1.50;99.90;;;;;;5072084;28;20204;-78
2023/01/21 06:26:44;;;;;;;6.00;5.10;;;-1.50;99.90;;;;;;5070660;28;20803;-79
2023/01/21 06:29:14;;;;;;;4.18;3.50;;;-1.50;99.90;;;;;;5072230;28;20228;-79
2023/01/21 06:31:42;;;;;;;5.22;4.65;;;-1.50;99.90;;;;;;5068269;28;20861;-79
2023/01/21 06:34:11;;;;;;;7.53;4.40;;;-1.60;99.90;;;;;;5066670;28;20244;-80
2023/01/21 06:36:41;;;;;;;6.45;4.40;;;-1.60;99.90;;;;;;5071205;28;20581;-79
2023/01/21 06:39:09;;;;;;;5.32;4.82;;;-1.60;99.90;;;;;;5071311;28;20201;-79
2023/01/21 06:41:38;;;;;;;6.28;4.85;;;-1.60;99.90;;;;;;5070955;28;20265;-80
2023/01/21 06:44:06;;;;;;;5.28;4.75;;;-1.50;99.90;;;;;;5069720;28;20204;-80
2023/01/21 06:46:36;;;;;;;7.55;5.25;;;-1.50;99.90;;;;;;5072277;28;20568;-77
2023/01/21 06:49:08;;;;;;;5.75;4.55;;;-1.50;99.90;;;;;;5072556;28;20204;-80
2023/01/21 06:51:36;;;;;;;7.68;6.22;;;-1.50;99.90;;;;;;5070358;28;20245;-77
2023/01/21 06:54:04;;;;;;;6.32;5.72;;;-1.50;99.90;;;;;;5052228;28;21699;-80
2023/01/21 06:56:33;;;;;;;6.28;5.68;;;-1.40;99.90;;;;;;5071301;28;20200;-80
2023/01/21 06:59:01;;;;;;;7.20;6.50;;;-1.40;99.90;;;;;;5072496;28;20296;-80
2023/01/21 07:01:30;;;;;;;5.95;5.35;;;-1.30;99.90;;;;;;5075229;28;20220;-79
2023/01/21 07:04:02;;;;;;;7.78;7.05;;;-1.20;99.90;;;;;;5075284;28;20195;-77
2023/01/21 07:06:30;;;;;;;9.45;6.72;;;-1.10;99.90;;;;;;5076734;28;20282;-81
2023/01/21 07:08:58;;;;;;;7.47;6.38;;;-1.20;99.90;;;;;;5076867;28;20215;-79
2023/01/21 07:11:26;;;;;;;9.90;7.82;;;-1.10;99.90;;;;;;5057990;28;20216;-80
2023/01/21 07:13:54;;;;;;;9.90;7.97;;;-1.10;99.90;;;;;;5076771;28;20201;-80
2023/01/21 07:16:22;;;;;;;14.52;9.23;;;-0.90;99.90;;;;;;5079580;28;20200;-79
2023/01/21 07:18:51;;;;;;;11.98;9.02;;;-1.00;99.90;;;;;;5084031;28;20268;-78
2023/01/21 07:21:20;;;;;;;12.57;10.07;;;-0.90;1.00;;;;;;5078876;28;22056;-81
2023/01/21 07:23:48;;;;;;;13.43;9.45;;;-0.90;1.00;;;;;;5074548;28;20196;-78
2023/01/21 07:26:16;;;;;;;14.45;10.35;;;-0.80;1.00;;;;;;5076683;28;20239;-78
2023/01/21 07:28:45;;;;;;;14.80;13.25;;;-0.70;1.00;;;;;;5061945;28;20240;-74
2023/01/21 07:31:13;;;;;;;15.95;12.45;;;-0.70;1.00;;;;;;5074063;28;20744;-77
2023/01/21 07:33:41;;;;;;;21.95;12.68;;;-0.80;1.00;;;;;;5069006;28;20208;-76
2023/01/21 07:36:09;;;;;;;17.95;11.18;;;-0.70;22.30;;;;;;5070276;28;20216;-77
2023/01/21 07:38:39;;;;;;;17.02;11.75;;;-0.60;1.00;;;;;;5072714;28;20203;-76
2023/01/21 07:41:07;;;;;;;18.80;13.13;;;-0.50;1.00;;;;;;5071896;28;20195;-76
2023/01/21 07:43:35;;;;;;;17.42;11.63;;;-0.50;1.00;;;;;;5071355;28;20208;-76
2023/01/21 07:46:03;;;;;;;18.08;14.18;;;-0.50;1.00;;;;;;5074308;28;20198;-76
2023/01/21 07:48:32;;;;;;;19.33;14.20;;;-0.40;1.00;;;;;;5078980;28;20219;-76
2023/01/21 07:51:00;;;;;;;20.90;12.85;;;-0.40;1.00;;;;;;5077936;28;20209;-76
2023/01/21 07:53:28;;;;;;;18.70;13.70;;;-0.40;24.50;;;;;;5072574;28;20299;-77
2023/01/21 07:56:03;;;;;;;21.48;13.30;;;-0.30;44.60;;;;;;5078957;28;20212;-78
2023/01/21 07:58:31;;;;;;;23.52;16.30;;;-0.30;39.70;;;;;;5075134;28;20278;-77
2023/01/21 08:01:02;;;;;;;21.80;14.95;;;-0.40;99.90;;;;;;5063041;28;20306;-78
2023/01/21 08:03:31;;;;;;;22.77;16.20;;;-0.40;99.90;;;;;;5069959;28;20199;-77
2023/01/21 08:05:59;;;;;;;26.98;17.35;;;-0.30;99.90;;;;;;5073758;28;20192;-77
2023/01/21 08:08:27;;;;;;;23.50;15.20;;;-0.30;87.00;;;;;;5070982;28;20192;-75
2023/01/21 08:10:55;;;;;;;24.27;14.35;;;-0.30;99.90;;;;;;5075140;28;20230;-76
2023/01/21 08:13:25;;;;;;;21.83;15.15;;;-0.30;84.90;;;;;;5072025;28;20290;-76
2023/01/21 08:15:55;;;;;;;24.88;15.65;;;-0.30;99.90;;;;;;5075017;28;20277;-78
2023/01/21 08:18:24;;;;;;;29.20;17.20;;;-0.30;99.90;;;;;;5074898;28;20204;-75
2023/01/21 08:20:54;;;;;;;27.00;18.38;;;-0.20;99.90;;;;;;5079878;28;20205;-76
2023/01/21 08:23:23;;;;;;;24.52;17.10;;;-0.20;99.90;;;;;;5074788;28;20207;-77
2023/01/21 08:25:51;;;;;;;23.83;15.63;;;-0.20;99.90;;;;;;5077542;28;20208;-77
2023/01/21 08:28:19;;;;;;;25.50;15.07;;;-0.20;99.90;;;;;;5080662;28;20287;-78
2023/01/21 08:30:49;;;;;;;22.90;16.17;;;-0.10;99.90;;;;;;5082063;28;20204;-77
2023/01/21 08:33:17;;;;;;;23.40;15.75;;;-0.10;99.90;;;;;;5075818;28;20278;-77
2023/01/21 08:35:45;;;;;;;24.45;15.65;;;-0.10;52.20;;;;;;5076502;28;21200;-77
2023/01/21 08:38:13;;;;;;;26.23;16.30;;;-0.10;99.90;;;;;;5081331;28;20216;-78
2023/01/21 08:40:41;;;;;;;22.45;15.65;;;0.00;63.50;;;;;;5086969;28;20205;-79
2023/01/21 08:43:09;;;;;;;21.27;15.50;;;-0.10;99.90;;;;;;5076426;28;20241;-78
2023/01/21 08:45:37;;;;;;;22.67;14.80;;;-0.10;99.90;;;;;;5062003;28;20202;-77
2023/01/21 08:48:07;;;;;;;27.55;15.95;;;-0.10;99.90;;;;;;5076359;28;20216;-78
2023/01/21 08:50:35;;;;;;;27.00;16.33;;;-0.10;99.90;;;;;;5075854;28;20201;-79
2023/01/21 08:53:04;;;;;;;34.58;19.35;;;0.00;99.90;;;;;;5068289;28;20220;-78
2023/01/21 08:55:32;;;;;;;30.15;18.15;;;0.10;99.90;;;;;;5072474;28;20212;-78
2023/01/21 08:58:00;;;;;;;29.08;16.42;;;0.10;99.90;;;;;;5076743;28;20256;-78
2023/01/21 09:00:28;;;;;;;28.92;18.17;;;0.10;99.90;;;;;;5076849;28;20191;-78
2023/01/21 09:02:59;;;;;;;29.13;17.42;;;0.10;99.90;;;;;;5057905;28;20236;-77
2023/01/21 09:05:28;;;;;;;25.45;15.88;;;0.00;99.90;;;;;;5071031;28;20200;-78
2023/01/21 09:07:57;;;;;;;21.05;14.98;;;0.10;99.90;;;;;;5075944;28;20207;-79
2023/01/21 09:13:11;;;;;;;25.42;17.60;;;0.10;99.90;;;;;;5075699;28;20252;-77
2023/01/21 09:15:40;;;;;;;24.77;14.50;;;0.20;99.90;;;;;;5078937;28;20219;-78
2023/01/21 09:18:08;;;;;;;21.95;15.32;;;0.20;99.90;;;;;;5076131;28;20273;-77
2023/01/21 09:20:38;;;;;;;20.77;15.13;;;0.20;99.90;;;;;;5078004;28;20199;-78
2023/01/21 09:23:22;;;;;;;21.80;14.38;;;0.20;99.90;;;;;;5076787;28;20220;-79
2023/01/21 09:25:51;;;;;;;22.33;13.52;;;0.20;99.90;;;;;;5072268;28;20230;-77
2023/01/21 09:28:20;;;;;;;25.50;15.02;;;0.30;99.90;;;;;;5080384;28;20271;-78
2023/01/21 09:30:48;;;;;;;20.40;13.63;;;0.40;99.90;;;;;;5056580;28;20211;-78
2023/01/21 09:33:17;;;;;;;25.13;15.82;;;0.30;99.90;;;;;;5066267;28;20427;-78
2023/01/21 09:35:53;;;;;;;28.45;14.02;;;0.40;99.90;;;;;;5069149;28;20231;-77
2023/01/21 09:38:21;;;;;;;23.23;13.68;;;0.50;65.90;;;;;;5069971;28;20241;-77
2023/01/21 09:40:49;;;;;;;20.08;13.05;;;0.50;61.00;;;;;;5068880;28;20203;-78
2023/01/21 09:43:22;;;;;;;20.30;14.23;;;0.50;99.20;;;;;;5068711;28;20212;-79
2023/01/21 09:45:52;;;;;;;21.52;13.07;;;0.50;91.40;;;;;;5068810;28;20221;-77
2023/01/21 09:48:28;;;;;;;24.88;14.35;;;0.70;39.90;;;;;;5058614;28;20642;-77
2023/01/21 09:51:02;;;;;;;21.67;14.50;;;0.70;1.00;;;;;;5071638;28;20697;-77
2023/01/21 09:53:35;;;;;;;21.58;15.80;;;0.70;1.00;;;;;;5072455;28;20304;-79
2023/01/21 09:56:10;;;;;;;26.27;15.60;;;0.70;1.00;;;;;;5073079;28;20211;-79
2023/01/21 09:58:43;;;;;;;26.92;16.42;;;0.80;19.50;;;;;;5054945;28;20236;-77
2023/01/21 10:01:15;;;;;;;27.08;16.65;;;0.80;6.00;;;;;;5066405;28;20476;-77
2023/01/21 10:03:50;;;;;;;24.23;15.95;;;0.70;1.00;;;;;;5069229;28;20769;-75
2023/01/21 10:06:35;;;;;;;29.20;17.00;;;0.80;99.90;;;;;;5078709;28;20199;-76
2023/01/21 10:09:15;;;;;;;26.45;14.80;;;0.80;53.40;;;;;;5078784;28;20192;-75
2023/01/21 10:12:16;;;;;;;24.10;15.43;;;0.80;85.80;;;;;;5075717;28;20317;-75
2023/01/21 10:15:09;;;;;;;19.00;12.52;;;0.80;54.80;;;;;;5023443;28;20210;-74
2023/01/21 10:17:50;;;;;;;16.88;10.40;;;0.80;1.00;;;;;;5067207;28;20210;-75
2023/01/21 10:20:23;;;;;;;18.63;11.38;;;0.90;1.00;;;;;;5070745;28;20706;-74
2023/01/21 10:22:57;;;;;;;16.83;11.18;;;0.90;1.00;;;;;;5063702;28;20224;-76
2023/01/21 10:25:29;;;;;;;16.98;10.82;;;0.80;1.00;;;;;;5065220;28;20201;-74
2023/01/21 10:28:04;;;;;;;14.57;11.15;;;0.90;1.00;;;;;;5067531;28;21936;-74
2023/01/21 10:30:36;;;;;;;15.00;10.15;;;0.80;1.00;;;;;;5068484;28;20205;-75
2023/01/21 10:33:07;;;;;;;13.43;8.98;;;0.80;1.00;;;;;;5066105;28;20639;-74
2023/01/21 10:35:46;;;;;;;15.90;10.50;;;0.80;1.00;;;;;;5068034;28;20199;-74
2023/01/21 10:38:23;;;;;;;14.95;10.02;;;0.90;1.70;;;;;;5054799;28;20617;-75
2023/01/21 10:40:58;;;;;;;16.65;12.45;;;0.80;1.00;;;;;;5066686;28;21269;-75
2023/01/21 10:43:36;;;;;;;16.38;10.60;;;0.80;1.00;;;;;;5051867;28;20298;-74
2023/01/21 10:46:13;;;;;;;18.88;12.32;;;0.90;47.20;;;;;;5068515;28;20192;-74
2023/01/21 10:48:50;;;;;;;15.00;9.63;;;0.90;17.10;;;;;;5067934;28;20692;-74
2023/01/21 10:51:22;;;;;;;16.58;9.82;;;0.90;1.00;;;;;;5074643;28;20232;-73
2023/01/21 10:53:56;;;;;;;21.00;12.60;;;0.90;1.00;;;;;;5066393;28;20185;-75
2023/01/21 10:56:34;;;;;;;18.77;11.32;;;0.90;1.00;;;;;;5068585;28;20214;-74
2023/01/21 10:59:06;;;;;;;14.98;10.70;;;1.00;1.00;;;;;;5071549;28;20215;-73
2023/01/21 11:01:39;;;;;;;29.45;16.60;;;0.90;1.00;;;;;;5070758;28;20235;-74
2023/01/21 11:04:14;;;;;;;21.80;12.73;;;1.00;45.00;;;;;;5070321;28;20207;-75
2023/01/21 11:06:43;;;;;;;15.10;10.77;;;0.90;99.90;;;;;;5072774;28;20206;-76
2023/01/21 11:09:15;;;;;;;15.13;13.43;;;1.00;87.70;;;;;;5072710;28;20197;-75
2023/01/21 11:11:45;;;;;;;14.43;10.27;;;1.00;27.70;;;;;;5074684;28;20578;-76
2023/01/21 11:14:13;;;;;;;16.08;10.68;;;1.00;32.50;;;;;;5059099;28;20201;-74
2023/01/21 11:16:45;;;;;;;18.67;12.32;;;1.10;22.90;;;;;;5072575;28;20619;-73
2023/01/21 11:19:15;;;;;;;16.15;10.77;;;1.00;28.10;;;;;;5075959;28;20200;-73
2023/01/21 11:22:02;;;;;;;18.77;12.13;;;1.00;92.90;;;;;;5069111;28;20236;-75
2023/01/21 11:24:42;;;;;;;15.60;11.48;;;1.00;99.90;;;;;;5076326;28;20208;-75
2023/01/21 11:27:20;;;;;;;19.50;10.93;;;1.10;99.90;;;;;;5075261;28;20220;-76
2023/01/21 11:29:49;;;;;;;17.05;12.43;;;1.10;99.90;;;;;;5075292;28;20199;-74
2023/01/21 11:32:20;;;;;;;16.75;10.90;;;1.10;99.90;;;;;;5074047;28;20220;-75
2023/01/21 11:34:51;;;;;;;16.60;13.20;;;1.10;99.90;;;;;;5070960;28;20515;-75
2023/01/21 11:37:24;;;;;;;18.67;12.13;;;1.00;99.90;;;;;;5070536;28;20213;-75
2023/01/21 11:39:56;;;;;;;21.92;12.10;;;1.10;99.90;;;;;;5064785;28;20200;-75
2023/01/21 11:42:25;;;;;;;22.38;12.15;;;1.20;99.90;;;;;;5061868;28;20240;-75
2023/01/21 11:44:55;;;;;;;18.85;12.30;;;1.20;99.90;;;;;;5060823;28;20195;-75
2023/01/21 11:47:29;;;;;;;17.30;11.05;;;1.20;94.80;;;;;;5062657;28;20205;-75
2023/01/21 11:50:09;;;;;;;16.48;10.90;;;1.10;99.90;;;;;;5061293;28;20890;-75
2023/01/21 11:52:37;;;;;;;19.63;11.90;;;1.20;97.20;;;;;;5059288;28;20254;-75
2023/01/21 11:55:21;;;;;;;18.33;11.80;;;1.10;94.70;;;;;;5066380;28;20208;-74
2023/01/21 11:57:53;;;;;;;16.95;11.90;;;1.20;99.90;;;;;;5064689;28;20209;-76
2023/01/21 12:00:24;;;;;;;18.98;12.38;;;1.20;93.00;;;;;;5063597;28;20660;-75
2023/01/21 12:02:56;;;;;;;18.67;12.95;;;1.20;88.00;;;;;;5065963;28;20295;-75
2023/01/21 12:05:32;;;;;;;16.50;10.95;;;1.20;96.00;;;;;;5067277;28;20750;-75
2023/01/21 12:08:02;;;;;;;15.98;11.02;;;1.20;99.90;;;;;;5073340;28;20197;-75
2023/01/21 12:10:35;;;;;;;19.30;11.90;;;1.20;99.90;;;;;;5070469;28;20199;-75
2023/01/21 12:13:20;;;;;;;17.92;11.40;;;1.20;99.90;;;;;;5064054;28;20259;-73
2023/01/21 12:16:23;;;;;;;18.25;13.38;;;1.20;99.90;;;;;;5065627;28;20292;-73
2023/01/21 12:19:27;;;;;;;18.10;11.98;;;1.30;48.10;;;;;;5064466;28;20206;-77
2023/01/21 12:22:19;;;;;;;19.73;11.57;;;1.20;99.90;;;;;;5049682;28;20652;-75
2023/01/21 12:25:07;;;;;;;18.63;12.48;;;1.20;99.90;;;;;;5062808;28;20475;-73
2023/01/21 12:27:51;;;;;;;15.73;11.63;;;1.20;99.90;;;;;;5050363;28;20731;-76
2023/01/21 12:30:27;;;;;;;18.25;11.35;;;1.20;99.90;;;;;;5065852;28;20226;-73
2023/01/21 12:33:00;;;;;;;17.40;11.63;;;1.20;99.90;;;;;;5063949;28;20227;-75
2023/01/21 12:35:33;;;;;;;19.48;10.85;;;1.30;99.90;;;;;;5068097;28;20287;-75
2023/01/21 12:38:07;;;;;;;14.15;10.10;;;1.30;99.90;;;;;;5064206;28;20510;-75
2023/01/21 12:40:41;;;;;;;19.10;13.20;;;1.30;99.90;;;;;;5061573;28;20228;-73
2023/01/21 12:43:16;;;;;;;16.45;11.38;;;1.30;99.90;;;;;;5059870;28;20268;-74
2023/01/21 12:45:49;;;;;;;19.38;11.60;;;1.30;99.90;;;;;;5064987;28;20269;-74
2023/01/21 12:48:26;;;;;;;17.63;12.10;;;1.20;99.90;;;;;;5057816;28;20281;-75
2023/01/21 12:50:59;;;;;;;16.30;12.52;;;1.30;99.90;;;;;;5065483;28;20204;-75
2023/01/21 12:53:36;;;;;;;16.08;9.90;;;1.20;99.90;;;;;;5058718;28;21058;-74
2023/01/21 12:56:23;;;;;;;15.30;10.45;;;1.30;99.90;;;;;;5064758;28;20206;-76
2023/01/21 12:58:57;;;;;;;18.08;11.02;;;1.30;99.90;;;;;;5068283;28;20613;-74
2023/01/21 13:01:41;;;;;;;17.98;11.25;;;1.30;99.90;;;;;;5071070;28;20260;-75
2023/01/21 13:04:26;;;;;;;15.43;11.68;;;1.40;99.90;;;;;;5069958;28;20197;-76
2023/01/21 13:07:03;;;;;;;16.20;10.77;;;1.40;99.90;;;;;;5075542;28;20279;-75
2023/01/21 13:09:37;;;;;;;17.98;11.02;;;1.30;99.90;;;;;;5070811;28;20291;-75
2023/01/21 13:12:14;;;;;;;20.95;12.10;;;1.40;99.90;;;;;;5071259;28;20231;-75
2023/01/21 13:14:46;;;;;;;17.75;10.85;;;1.40;99.90;;;;;;5075865;28;20197;-75
2023/01/21 13:17:19;;;;;;;17.95;11.30;;;1.40;99.90;;;;;;5074394;28;22104;-76